createdAt,value
2019-03-03T00:02:00.486Z,100388.75
2019-03-03T00:04:30.364Z,100392.95
2019-03-03T00:06:59.160Z,100388.24
2019-03-03T00:09:27.782Z,100399.56
2019-03-03T00:11:56.432Z,100395.16
2019-03-03T00:14:25.133Z,100394.72
2019-03-03T00:16:53.888Z,100401.13
2019-03-03T00:19:22.604Z,100395.16
2019-03-03T00:21:51.362Z,100396.99
2019-03-03T00:24:20.011Z,100402.30
2019-03-03T00:26:48.797Z,100392.28
2019-03-03T00:29:17.378Z,100401.47
2019-03-03T00:31:46.021Z,100400.63
2019-03-03T00:34:14.737Z,100400.37
2019-03-03T00:37:01.044Z,100397.13
2019-03-03T00:39:45.201Z,100399.50
2019-03-03T00:42:38.854Z,100402.67
2019-03-03T00:45:40.137Z,100397.46
2019-03-03T00:48:26.308Z,100396.63
2019-03-03T00:51:28.910Z,100389.11
2019-03-03T00:54:20.572Z,100392.98
2019-03-03T00:56:57.444Z,100396.83
2019-03-03T00:59:44.572Z,100393.52
2019-03-03T01:02:34.205Z,100391.92
2019-03-03T01:05:13.728Z,100390.21
2019-03-03T01:08:13.985Z,100382.50
2019-03-03T01:10:49.514Z,100385.80
2019-03-03T01:13:36.173Z,100383.23
2019-03-03T01:16:23.982Z,100382.55
2019-03-03T01:19:05.488Z,100380.45
2019-03-03T01:21:39.434Z,100366.88
2019-03-03T01:24:19.980Z,100371.21
2019-03-03T01:26:48.620Z,100373.45
2019-03-03T01:29:17.346Z,100371.81
2019-03-03T01:31:46.056Z,100370.05
2019-03-03T01:34:14.743Z,100366.80
2019-03-03T01:36:43.374Z,100366.70
2019-03-03T01:39:12.858Z,100358.36
2019-03-03T01:41:41.492Z,100359.86
2019-03-03T01:44:10.136Z,100362.52
2019-03-03T01:46:38.741Z,100364.79
2019-03-03T01:49:07.446Z,100359.09
2019-03-03T01:51:36.147Z,100350.67
2019-03-03T01:54:04.799Z,100351.63
2019-03-03T01:56:33.490Z,100356.28
2019-03-03T01:59:02.104Z,100354.38
2019-03-03T02:01:30.839Z,100347.30
2019-03-03T02:03:59.462Z,100346.43
2019-03-03T02:06:28.132Z,100337.19
2019-03-03T02:08:56.774Z,100334.28
2019-03-03T02:11:25.501Z,100332.88
2019-03-03T02:13:54.149Z,100328.23
2019-03-03T02:16:22.874Z,100324.44
2019-03-03T02:18:52.386Z,100323.20
2019-03-03T02:21:21.035Z,100318.69
2019-03-03T02:23:49.678Z,100318.69
2019-03-03T02:26:18.418Z,100322.63
2019-03-03T02:28:47.083Z,100314.82
2019-03-03T02:31:15.708Z,100317.63
2019-03-03T02:33:44.427Z,100312.78
2019-03-03T02:36:13.219Z,100307.64
2019-03-03T02:38:41.820Z,100300.77
2019-03-03T02:41:10.491Z,100311.14
2019-03-03T02:43:40.468Z,100307.31
2019-03-03T02:46:09.257Z,100314.05
2019-03-03T02:48:37.964Z,100310.48
2019-03-03T02:51:06.636Z,100308.28
2019-03-03T02:53:35.358Z,100310.55
2019-03-03T02:56:04.018Z,100314.82
2019-03-03T02:58:32.697Z,100315.39
2019-03-03T03:01:06.893Z,100317.36
2019-03-03T03:03:35.497Z,100298.53
2019-03-03T03:06:12.684Z,100285.18
2019-03-03T03:08:58.954Z,100287.15
2019-03-03T03:11:53.043Z,100278.40
2019-03-03T03:14:40.679Z,100269.78
2019-03-03T03:17:16.437Z,100273.56
2019-03-03T03:19:56.766Z,100270.31
2019-03-03T03:22:34.998Z,100274.95
2019-03-03T03:25:22.667Z,100269.21
2019-03-03T03:27:57.514Z,100269.88
2019-03-03T03:30:32.321Z,100275.72
2019-03-03T03:33:22.707Z,100268.67
2019-03-03T03:36:02.158Z,100265.30
2019-03-03T03:38:55.151Z,100257.91
2019-03-03T03:41:37.450Z,100260.71
2019-03-03T03:44:36.913Z,100258.21
2019-03-03T03:47:25.737Z,100251.51
2019-03-03T03:50:15.213Z,100243.80
2019-03-03T03:52:54.137Z,100250.47
2019-03-03T03:55:43.923Z,100250.60
2019-03-03T03:58:31.572Z,100261.08
2019-03-03T04:01:14.356Z,100255.11
2019-03-03T04:03:47.912Z,100248.00
2019-03-03T04:06:21.659Z,100252.31
2019-03-03T04:08:57.428Z,100243.64
2019-03-03T04:11:37.970Z,100242.25
2019-03-03T04:14:14.556Z,100237.05
2019-03-03T04:17:04.969Z,100240.66
2019-03-03T04:19:52.626Z,100227.75
2019-03-03T04:22:30.205Z,100231.33
2019-03-03T04:25:08.493Z,100222.24
2019-03-03T04:27:53.161Z,100226.98
2019-03-03T04:30:46.710Z,100232.28
2019-03-03T04:33:37.559Z,100235.83
2019-03-03T04:36:25.268Z,100219.80
2019-03-03T04:39:18.627Z,100217.28
2019-03-03T04:41:55.784Z,100213.45
2019-03-03T04:44:32.085Z,100207.53
2019-03-03T04:47:16.422Z,100207.28
2019-03-03T04:50:06.273Z,100208.11
2019-03-03T04:52:39.783Z,100213.91
2019-03-03T04:55:33.626Z,100199.02
2019-03-03T04:58:09.294Z,100187.83
2019-03-03T05:00:57.354Z,100194.25
2019-03-03T05:04:03.183Z,100191.41
2019-03-03T05:06:41.011Z,100192.13
2019-03-03T05:09:19.124Z,100189.80
2019-03-03T05:12:38.019Z,100194.08
2019-03-03T05:15:31.097Z,100185.23
2019-03-03T05:18:11.034Z,100178.88
2019-03-03T05:20:47.037Z,100173.56
2019-03-03T05:23:15.731Z,100167.37
2019-03-03T05:25:44.373Z,100166.20
2019-03-03T05:28:12.997Z,100170.26
2019-03-03T05:30:41.712Z,100170.84
2019-03-03T05:33:10.362Z,100159.86
2019-03-03T05:35:39.020Z,100161.49
2019-03-03T05:38:07.707Z,100153.23
2019-03-03T05:40:36.421Z,100157.69
2019-03-03T05:43:05.105Z,100151.84
2019-03-03T05:45:33.739Z,100149.34
2019-03-03T05:48:02.367Z,100155.02
2019-03-03T05:50:31.003Z,100152.69
2019-03-03T05:52:59.645Z,100158.11
2019-03-03T05:55:28.337Z,100159.28
2019-03-03T05:57:56.948Z,100162.50
2019-03-03T06:00:25.695Z,100158.16
2019-03-03T06:02:54.302Z,100142.67
2019-03-03T06:05:22.946Z,100138.25
2019-03-03T06:07:51.554Z,100130.61
2019-03-03T06:10:20.241Z,100134.62
2019-03-03T06:12:48.883Z,100132.48
2019-03-03T06:15:17.519Z,100124.47
2019-03-03T06:17:46.294Z,100135.33
2019-03-03T06:20:15.011Z,100130.44
2019-03-03T06:22:43.657Z,100138.63
2019-03-03T06:25:12.699Z,100130.11
2019-03-03T06:27:41.508Z,100135.78
2019-03-03T06:30:15.346Z,100139.78
2019-03-03T06:32:44.154Z,100139.88
2019-03-03T06:35:13.022Z,100143.89
2019-03-03T06:37:41.771Z,100142.88
2019-03-03T06:40:10.739Z,100150.98
2019-03-03T06:42:39.855Z,100153.23
2019-03-03T06:45:09.779Z,100156.32
2019-03-03T06:47:38.599Z,100161.58
2019-03-03T06:50:13.068Z,100164.96
2019-03-03T06:52:43.539Z,100163.21
2019-03-03T06:55:12.581Z,100159.66
2019-03-03T06:57:42.983Z,100154.07
2019-03-03T07:00:14.670Z,100153.61
2019-03-03T07:02:45.175Z,100149.86
2019-03-03T07:05:13.945Z,100154.70
2019-03-03T07:07:43.463Z,100155.20
2019-03-03T07:10:13.947Z,100156.20
2019-03-03T07:12:43.299Z,100160.55
2019-03-03T07:15:14.120Z,100163.04
2019-03-03T07:17:43.234Z,100173.23
2019-03-03T07:20:13.511Z,100177.58
2019-03-03T07:22:43.686Z,100175.53
2019-03-03T07:25:12.792Z,100177.24
2019-03-03T07:27:41.609Z,100173.56
2019-03-03T07:30:12.811Z,100172.31
2019-03-03T07:32:47.256Z,100169.77
2019-03-03T07:35:16.119Z,100179.62
2019-03-03T07:37:44.940Z,100169.34
2019-03-03T07:40:13.755Z,100169.06
2019-03-03T07:42:42.589Z,100174.48
2019-03-03T07:45:11.698Z,100180.37
2019-03-03T07:47:40.468Z,100173.15
2019-03-03T07:50:09.227Z,100173.52
2019-03-03T07:52:38.108Z,100171.56
2019-03-03T07:55:07.749Z,100174.65
2019-03-03T07:57:36.566Z,100171.23
2019-03-03T08:00:07.407Z,100168.80
2019-03-03T08:02:36.187Z,100171.89
2019-03-03T08:05:05.212Z,100164.26
2019-03-03T08:07:35.035Z,100167.47
2019-03-03T08:10:06.203Z,100170.73
2019-03-03T08:12:35.099Z,100177.53
2019-03-03T08:15:04.571Z,100181.33
2019-03-03T08:17:33.890Z,100175.98
2019-03-03T08:20:02.707Z,100171.47
2019-03-03T08:22:31.561Z,100177.33
2019-03-03T08:25:00.412Z,100176.91
2019-03-03T08:27:34.399Z,100174.48
2019-03-03T08:30:04.832Z,100173.77
2019-03-03T08:32:33.413Z,100171.52
2019-03-03T08:35:02.044Z,100169.34
2019-03-03T08:37:30.669Z,100162.52
2019-03-03T08:39:59.307Z,100165.91
2019-03-03T08:42:34.591Z,100163.23
2019-03-03T08:45:34.348Z,100161.59
2019-03-03T08:48:24.742Z,100162.61
2019-03-03T08:50:57.393Z,100172.70
2019-03-03T08:53:46.654Z,100167.78
2019-03-03T08:56:25.501Z,100166.73
2019-03-03T08:59:03.720Z,100165.64
2019-03-03T09:01:47.997Z,100159.78
2019-03-03T09:04:26.566Z,100156.27
2019-03-03T09:07:19.247Z,100153.02
2019-03-03T09:10:25.322Z,100152.09
2019-03-03T09:13:14.210Z,100147.08
2019-03-03T09:15:52.083Z,100138.86
2019-03-03T09:18:32.271Z,100139.38
2019-03-03T09:21:18.550Z,100122.40
2019-03-03T09:24:01.202Z,100133.22
2019-03-03T09:26:47.482Z,100138.25
2019-03-03T09:29:26.015Z,100128.28
2019-03-03T09:32:13.140Z,100137.77
2019-03-03T09:34:50.958Z,100128.30
2019-03-03T09:37:28.224Z,100139.81
2019-03-03T09:40:14.412Z,100129.11
2019-03-03T09:42:50.187Z,100123.97
2019-03-03T09:45:31.306Z,100126.65
2019-03-03T09:48:13.166Z,100121.69
2019-03-03T09:51:03.770Z,100122.84
2019-03-03T09:53:45.221Z,100125.02
2019-03-03T09:56:31.561Z,100122.42
2019-03-03T09:59:19.333Z,100124.87
2019-03-03T10:02:07.060Z,100125.09
2019-03-03T10:05:00.624Z,100125.31
2019-03-03T10:07:53.317Z,100124.37
2019-03-03T10:10:39.661Z,100133.41
2019-03-03T10:13:14.992Z,100131.45
2019-03-03T10:16:15.022Z,100122.95
2019-03-03T10:18:50.102Z,100119.56
2019-03-03T10:21:28.821Z,100123.33
2019-03-03T10:24:16.460Z,100136.61
2019-03-03T10:27:02.729Z,100127.55
2019-03-03T10:29:40.799Z,100135.99
2019-03-03T10:32:43.534Z,100139.52
2019-03-03T10:35:28.283Z,100140.14
2019-03-03T10:38:05.611Z,100144.52
2019-03-03T10:40:48.226Z,100139.27
2019-03-03T10:43:37.714Z,100146.19
2019-03-03T10:46:14.868Z,100140.20
2019-03-03T10:49:20.979Z,100142.22
2019-03-03T10:51:58.870Z,100137.59
2019-03-03T10:54:40.474Z,100137.81
2019-03-03T10:57:21.586Z,100135.64
2019-03-03T11:00:04.233Z,100139.27
2019-03-03T11:02:50.396Z,100136.69
2019-03-03T11:05:36.821Z,100136.80
2019-03-03T11:08:30.282Z,100116.36
2019-03-03T11:11:23.732Z,100114.70
2019-03-03T11:14:16.230Z,100119.97
2019-03-03T11:17:04.000Z,100115.22
2019-03-03T11:19:43.938Z,100122.31
2019-03-03T11:22:24.540Z,100123.64
2019-03-03T11:25:17.753Z,100123.33
2019-03-03T11:27:54.576Z,100115.91
2019-03-03T11:30:51.381Z,100116.87
2019-03-03T11:33:39.249Z,100108.21
2019-03-03T11:36:26.966Z,100104.89
2019-03-03T11:39:05.218Z,100097.72
2019-03-03T11:42:01.895Z,100097.53
2019-03-03T11:44:48.208Z,100100.25
2019-03-03T11:47:23.785Z,100086.55
2019-03-03T11:50:20.383Z,100083.07
2019-03-03T11:52:55.664Z,100083.88
2019-03-03T11:55:29.398Z,100080.13
2019-03-03T11:58:13.825Z,100075.70
2019-03-03T12:01:04.244Z,100067.07
2019-03-03T12:03:54.588Z,100056.44
2019-03-03T12:06:41.126Z,100054.39
2019-03-03T12:09:35.221Z,100062.28
2019-03-03T12:12:14.434Z,100053.31
2019-03-03T12:15:00.541Z,100044.88
2019-03-03T12:17:50.199Z,100047.65
2019-03-03T12:20:27.557Z,100050.27
2019-03-03T12:23:20.923Z,100043.75
2019-03-03T12:26:11.473Z,100036.58
2019-03-03T12:29:01.980Z,100046.64
2019-03-03T12:31:50.795Z,100039.36
2019-03-03T12:34:24.996Z,100034.27
2019-03-03T12:37:27.750Z,100036.53
2019-03-03T12:40:21.390Z,100029.75
2019-03-03T12:43:14.903Z,100032.31
2019-03-03T12:46:20.596Z,100023.89
2019-03-03T12:49:17.070Z,100026.99
2019-03-03T12:52:04.170Z,100021.06
2019-03-03T12:54:41.134Z,100023.70
2019-03-03T12:57:40.809Z,100025.88
2019-03-03T13:00:16.715Z,100021.69
2019-03-03T13:03:03.342Z,100009.44
2019-03-03T13:05:44.707Z,100007.97
2019-03-03T13:08:21.989Z,100004.78
2019-03-03T13:11:08.204Z,100003.00
2019-03-03T13:13:44.360Z,100007.44
2019-03-03T13:16:18.696Z,99995.67
2019-03-03T13:18:59.322Z,99990.05
2019-03-03T13:21:45.662Z,99991.14
2019-03-03T13:24:26.405Z,99984.55
2019-03-03T13:27:19.923Z,99972.84
2019-03-03T13:30:10.331Z,99970.99
2019-03-03T13:33:16.241Z,99971.76
2019-03-03T13:36:12.165Z,99966.45
2019-03-03T13:38:49.741Z,99960.39
2019-03-03T13:41:27.935Z,99960.45
2019-03-03T13:43:56.641Z,99958.09
2019-03-03T13:46:25.290Z,99952.00
2019-03-03T13:48:53.914Z,99957.67
2019-03-03T13:51:22.580Z,99958.45
2019-03-03T13:53:51.208Z,99953.14
2019-03-03T13:56:20.304Z,99943.33
2019-03-03T13:58:49.014Z,99946.95
2019-03-03T14:01:17.707Z,99947.59
2019-03-03T14:03:46.336Z,99945.69
2019-03-03T14:06:15.039Z,99950.16
2019-03-03T14:08:43.766Z,99944.31
2019-03-03T14:11:12.507Z,99949.45
2019-03-03T14:13:41.212Z,99942.24
2019-03-03T14:16:09.911Z,99937.39
2019-03-03T14:18:38.549Z,99935.66
2019-03-03T14:21:07.144Z,99930.05
2019-03-03T14:23:35.942Z,99933.47
2019-03-03T14:26:04.615Z,99940.39
2019-03-03T14:28:33.248Z,99930.14
2019-03-03T14:31:01.926Z,99919.30
2019-03-03T14:33:32.848Z,99906.81
2019-03-03T14:36:01.459Z,99910.58
2019-03-03T14:38:30.103Z,99901.03
2019-03-03T14:40:58.706Z,99909.95
2019-03-03T14:43:27.435Z,99918.11
2019-03-03T14:45:58.047Z,99903.20
2019-03-03T14:48:28.948Z,99898.70
2019-03-03T14:50:57.977Z,99901.84
2019-03-03T14:53:27.090Z,99904.66
2019-03-03T14:55:56.009Z,99893.10
2019-03-03T14:58:27.999Z,99895.41
2019-03-03T15:01:00.986Z,99881.88
2019-03-03T15:03:30.426Z,99863.14
2019-03-03T15:06:00.083Z,99871.08
2019-03-03T15:08:53.898Z,99880.55
2019-03-03T15:11:22.955Z,99874.53
2019-03-03T15:13:52.756Z,99879.41
2019-03-03T15:16:21.773Z,99872.39
2019-03-03T15:18:53.673Z,99870.03
2019-03-03T15:21:25.310Z,99880.53
2019-03-03T15:23:53.779Z,99870.92
2019-03-03T15:26:23.501Z,99867.76
2019-03-03T15:28:52.909Z,99878.80
2019-03-03T15:31:21.734Z,99868.31
2019-03-03T15:33:50.939Z,99867.97
2019-03-03T15:36:21.852Z,99867.97
2019-03-03T15:38:50.693Z,99860.95
2019-03-03T15:41:20.160Z,99859.33
2019-03-03T15:43:48.766Z,99854.06
2019-03-03T15:46:17.551Z,99853.39
2019-03-03T15:48:46.334Z,99853.70
2019-03-03T15:51:15.061Z,99840.72
2019-03-03T15:53:43.806Z,99848.09
2019-03-03T15:56:12.502Z,99851.31
2019-03-03T15:58:41.808Z,99840.57
2019-03-03T16:01:14.798Z,99834.89
2019-03-03T16:03:43.529Z,99832.02
2019-03-03T16:06:12.243Z,99837.52
2019-03-03T16:08:40.864Z,99830.59
2019-03-03T16:11:09.631Z,99829.77
2019-03-03T16:13:38.246Z,99825.70
2019-03-03T16:16:06.914Z,99820.89
2019-03-03T16:18:35.562Z,99808.88
2019-03-03T16:21:04.210Z,99805.51
2019-03-03T16:23:32.933Z,99793.41
2019-03-03T16:26:01.606Z,99785.59
2019-03-03T16:28:30.213Z,99784.58
2019-03-03T16:30:58.836Z,99761.19
2019-03-03T16:33:27.527Z,99760.53
2019-03-03T16:35:56.137Z,99745.27
2019-03-03T16:38:24.940Z,99746.99
2019-03-03T16:40:53.577Z,99741.77
2019-03-03T16:43:23.174Z,99743.00
2019-03-03T16:45:51.899Z,99739.75
2019-03-03T16:48:20.587Z,99743.59
2019-03-03T16:50:49.330Z,99741.66
2019-03-03T16:53:17.951Z,99747.20
2019-03-03T16:55:46.571Z,99741.56
2019-03-03T16:58:15.263Z,99731.91
2019-03-03T17:00:43.927Z,99732.33
2019-03-03T17:03:12.543Z,99734.13
2019-03-03T17:05:41.242Z,99729.65
2019-03-03T17:08:09.935Z,99728.71
2019-03-03T17:10:38.701Z,99728.17
2019-03-03T17:13:07.472Z,99728.85
2019-03-03T17:15:36.120Z,99726.77
2019-03-03T17:18:04.953Z,99722.66
2019-03-03T17:20:33.627Z,99716.67
2019-03-03T17:23:02.293Z,99723.20
2019-03-03T17:25:30.952Z,99711.52
2019-03-03T17:27:59.632Z,99720.24
2019-03-03T17:30:28.508Z,99716.97
2019-03-03T17:32:57.384Z,99709.35
2019-03-03T17:35:26.077Z,99710.34
2019-03-03T17:37:56.566Z,99717.98
2019-03-03T17:40:25.123Z,99712.57
2019-03-03T17:42:53.877Z,99706.92
2019-03-03T17:45:23.070Z,99704.08
2019-03-03T17:47:55.963Z,99691.87
2019-03-03T17:50:27.183Z,99698.48
2019-03-03T17:52:56.787Z,99696.86
2019-03-03T17:55:33.091Z,99694.27
2019-03-03T17:58:02.031Z,99693.12
2019-03-03T18:00:39.183Z,99691.50
2019-03-03T18:03:08.877Z,99687.25
2019-03-03T18:05:41.880Z,99676.08
2019-03-03T18:08:13.452Z,99688.22
2019-03-03T18:10:46.259Z,99680.32
2019-03-03T18:13:17.351Z,99683.38
2019-03-03T18:15:51.191Z,99670.12
2019-03-03T18:18:20.582Z,99662.25
2019-03-03T18:20:49.939Z,99660.02
2019-03-03T18:23:20.720Z,99653.53
2019-03-03T18:25:51.471Z,99658.52
2019-03-03T18:28:20.945Z,99656.00
2019-03-03T18:30:50.812Z,99656.73
2019-03-03T18:33:20.410Z,99652.72
2019-03-03T18:35:50.466Z,99655.31
2019-03-03T18:38:19.891Z,99653.06
2019-03-03T18:40:48.954Z,99651.53
2019-03-03T18:43:20.394Z,99645.86
2019-03-03T18:45:49.202Z,99640.64
2019-03-03T18:48:18.061Z,99634.23
2019-03-03T18:50:48.331Z,99627.92
2019-03-03T18:53:18.135Z,99630.52
2019-03-03T18:55:48.161Z,99629.86
2019-03-03T18:58:18.805Z,99625.32
2019-03-03T19:00:48.709Z,99624.73
2019-03-03T19:03:19.035Z,99611.69
2019-03-03T19:05:55.466Z,99617.95
2019-03-03T19:08:19.411Z,99620.83
2019-03-03T19:10:48.894Z,99622.56
2019-03-03T19:13:18.034Z,99622.70
2019-03-03T19:15:48.983Z,99619.97
2019-03-03T19:18:20.193Z,99618.84
2019-03-03T19:20:49.347Z,99611.33
2019-03-03T19:23:21.017Z,99607.00
2019-03-03T19:25:54.178Z,99613.63
2019-03-03T19:28:23.879Z,99602.83
2019-03-03T19:30:53.888Z,99599.55
2019-03-03T19:33:30.058Z,99606.02
2019-03-03T19:36:07.539Z,99599.84
2019-03-03T19:38:36.652Z,99594.94
2019-03-03T19:41:06.022Z,99596.33
2019-03-03T19:43:45.318Z,99591.20
2019-03-03T19:46:14.189Z,99590.84
2019-03-03T19:48:44.581Z,99586.66
2019-03-03T19:51:15.780Z,99582.05
2019-03-03T19:53:44.657Z,99587.28
2019-03-03T19:56:14.949Z,99580.51
2019-03-03T19:58:44.014Z,99578.94
2019-03-03T20:01:12.863Z,99576.02
2019-03-03T20:03:41.783Z,99571.72
2019-03-03T20:06:10.687Z,99568.13
2019-03-03T20:08:39.442Z,99564.34
2019-03-03T20:11:11.043Z,99559.89
2019-03-03T20:13:40.023Z,99551.37
2019-03-03T20:16:09.146Z,99549.69
2019-03-03T20:18:37.877Z,99549.84
2019-03-03T20:21:07.119Z,99547.23
2019-03-03T20:23:35.984Z,99547.52
2019-03-03T20:26:05.041Z,99549.53
2019-03-03T20:28:33.911Z,99545.20
2019-03-03T20:31:03.001Z,99544.69
2019-03-03T20:33:31.788Z,99542.59
2019-03-03T20:36:00.623Z,99537.55
2019-03-03T20:38:29.769Z,99529.59
2019-03-03T20:41:01.797Z,99517.29
2019-03-03T20:43:30.956Z,99506.34
2019-03-03T20:45:59.884Z,99501.52
2019-03-03T20:48:30.323Z,99500.63
2019-03-03T20:50:59.069Z,99494.08
2019-03-03T20:53:27.937Z,99488.92
2019-03-03T20:55:59.168Z,99505.31
2019-03-03T20:58:33.455Z,99496.68
2019-03-03T21:01:05.383Z,99500.70
2019-03-03T21:03:34.719Z,99492.73
2019-03-03T21:06:03.699Z,99492.27
2019-03-03T21:08:35.082Z,99483.72
2019-03-03T21:11:04.212Z,99475.44
2019-03-03T21:13:37.198Z,99472.92
2019-03-03T21:16:06.067Z,99464.20
2019-03-03T21:18:36.688Z,99467.28
2019-03-03T21:21:06.063Z,99465.11
2019-03-03T21:23:35.027Z,99460.86
2019-03-03T21:26:04.697Z,99453.56
2019-03-03T21:28:54.060Z,99454.66
2019-03-03T21:31:23.732Z,99457.81
2019-03-03T21:33:53.955Z,99450.36
2019-03-03T21:36:23.285Z,99436.96
2019-03-03T21:39:17.838Z,99440.75
2019-03-03T21:41:55.842Z,99438.18
2019-03-03T21:44:26.129Z,99437.55
2019-03-03T21:47:10.720Z,99425.69
2019-03-03T21:49:41.905Z,99412.55
2019-03-03T21:52:13.008Z,99420.05
2019-03-03T21:54:58.217Z,99419.38
2019-03-03T21:57:28.856Z,99403.57
2019-03-03T21:59:57.677Z,99397.45
2019-03-03T22:02:26.971Z,99387.30
2019-03-03T22:05:00.778Z,99381.36
2019-03-03T22:08:06.309Z,99368.64
2019-03-03T22:10:35.880Z,99361.34
2019-03-03T22:13:12.475Z,99347.94
2019-03-03T22:15:42.081Z,99359.57
2019-03-03T22:18:23.599Z,99357.07
2019-03-03T22:21:05.022Z,99348.02
2019-03-03T22:23:36.223Z,99355.39
2019-03-03T22:26:10.792Z,99353.45
2019-03-03T22:28:43.733Z,99344.44
2019-03-03T22:31:19.799Z,99336.45
2019-03-03T22:33:53.138Z,99322.91
2019-03-03T22:36:26.360Z,99316.48
2019-03-03T22:42:18.382Z,99316.13
2019-03-03T22:44:50.009Z,99313.22
2019-03-03T22:47:26.216Z,99311.23
2019-03-03T22:50:03.726Z,99313.08
2019-03-03T22:52:32.670Z,99303.59
2019-03-03T22:55:07.115Z,99294.54
2019-03-03T22:57:42.407Z,99282.26
2019-03-03T23:00:45.554Z,99275.10
2019-03-03T23:03:24.091Z,99269.36
2019-03-03T23:06:34.677Z,99258.14
2019-03-03T23:09:40.963Z,99263.58
2019-03-03T23:12:35.025Z,99260.93
2019-03-03T23:15:38.701Z,99270.50
2019-03-03T23:18:44.993Z,99264.63
2019-03-03T23:21:43.070Z,99274.51
2019-03-03T23:24:49.931Z,99276.20
2019-03-03T23:27:20.077Z,99281.48
2019-03-03T23:29:55.394Z,99286.67
2019-03-03T23:32:31.179Z,99282.38
2019-03-03T23:35:00.221Z,99269.87
2019-03-03T23:37:35.382Z,99279.91
2019-03-03T23:40:04.611Z,99286.16
2019-03-03T23:42:33.361Z,99277.38
2019-03-03T23:45:02.108Z,99263.38
2019-03-03T23:47:33.555Z,99268.57
2019-03-03T23:50:02.655Z,99262.94
2019-03-03T23:52:31.485Z,99249.23
2019-03-03T23:55:04.218Z,99228.91
2019-03-03T23:57:33.913Z,99214.11
